createdAt,value
2022-10-25T00:01:20.937Z,70.50
2022-10-25T00:03:50.807Z,70.80
2022-10-25T00:06:19.079Z,71.00
2022-10-25T00:08:47.362Z,71.20
2022-10-25T00:11:23.504Z,71.30
2022-10-25T00:13:53.037Z,72.20
2022-10-25T00:16:23.191Z,71.70
2022-10-25T00:18:53.415Z,71.90
2022-10-25T00:21:22.495Z,72.00
2022-10-25T00:23:52.171Z,71.90
2022-10-25T00:26:21.845Z,72.00
2022-10-25T00:28:50.329Z,72.10
2022-10-25T00:31:19.143Z,72.10
2022-10-25T00:33:47.421Z,72.30
2022-10-25T00:36:19.414Z,72.40
2022-10-25T00:38:47.759Z,72.60
2022-10-25T00:41:19.826Z,72.50
2022-10-25T00:43:49.924Z,72.60
2022-10-25T00:46:24.124Z,72.60
2022-10-25T00:48:58.791Z,73.10
2022-10-25T00:51:34.884Z,73.00
2022-10-25T00:54:03.182Z,73.20
2022-10-25T00:56:35.309Z,72.80
2022-10-25T00:59:07.031Z,73.20
2022-10-25T01:01:35.660Z,73.30
2022-10-25T01:04:08.777Z,73.30
2022-10-25T01:06:40.925Z,73.70
2022-10-25T01:09:10.939Z,74.00
2022-10-25T01:11:39.166Z,73.80
2022-10-25T01:14:10.419Z,74.00
2022-10-25T01:16:48.851Z,74.20
2022-10-25T01:19:37.582Z,74.70
2022-10-25T01:22:10.168Z,75.20
2022-10-25T01:25:04.527Z,74.70
2022-10-25T01:27:48.475Z,75.60
2022-10-25T01:30:21.240Z,75.20
2022-10-25T01:33:05.966Z,75.00
2022-10-25T01:35:40.771Z,75.80
2022-10-25T01:38:26.035Z,74.90
2022-10-25T01:41:05.240Z,75.80
2022-10-25T01:43:42.251Z,75.50
2022-10-25T01:46:16.799Z,75.80
2022-10-25T01:48:49.587Z,75.80
2022-10-25T01:51:19.667Z,75.90
2022-10-25T01:53:49.778Z,75.80
2022-10-25T01:56:25.519Z,75.80
2022-10-25T01:59:13.124Z,76.30
2022-10-25T02:01:50.931Z,76.30
2022-10-25T02:04:28.037Z,76.40
2022-10-25T02:07:02.049Z,76.40
2022-10-25T02:09:37.867Z,76.20
2022-10-25T02:12:10.479Z,76.50
2022-10-25T02:14:44.284Z,76.30
2022-10-25T02:17:16.177Z,76.30
2022-10-25T02:19:49.130Z,76.30
2022-10-25T02:22:19.064Z,76.50
2022-10-25T02:24:48.326Z,76.20
2022-10-25T02:27:19.160Z,76.30
2022-10-25T02:29:48.799Z,76.40
2022-10-25T02:32:17.269Z,76.20
2022-10-25T02:34:49.601Z,76.20
2022-10-25T02:37:18.105Z,76.70
2022-10-25T02:39:46.912Z,76.40
2022-10-25T02:42:15.160Z,76.30
2022-10-25T02:44:43.424Z,76.40
2022-10-25T02:47:11.992Z,76.40
2022-10-25T02:49:40.440Z,76.50
2022-10-25T02:52:10.119Z,76.50
2022-10-25T02:54:38.317Z,76.60
2022-10-25T02:57:06.530Z,76.60
2022-10-25T02:59:34.815Z,76.50
2022-10-25T03:02:03.178Z,76.50
2022-10-25T03:04:31.531Z,76.50
2022-10-25T03:06:59.855Z,76.60
2022-10-25T03:09:29.488Z,76.70
2022-10-25T03:11:57.686Z,76.90
2022-10-25T03:14:26.038Z,76.80
2022-10-25T03:16:54.311Z,76.80
2022-10-25T03:19:22.556Z,76.80
2022-10-25T03:21:50.780Z,76.80
2022-10-25T03:24:19.013Z,76.70
2022-10-25T03:26:48.665Z,76.70
2022-10-25T03:29:16.888Z,76.80
2022-10-25T03:31:45.127Z,76.70
2022-10-25T03:34:13.323Z,76.60
2022-10-25T03:36:41.546Z,76.50
2022-10-25T03:39:09.822Z,76.40
2022-10-25T03:41:37.997Z,76.50
2022-10-25T03:44:07.782Z,76.50
2022-10-25T03:46:36.217Z,76.70
2022-10-25T03:49:04.493Z,76.90
2022-10-25T03:51:32.710Z,77.00
2022-10-25T03:54:00.971Z,77.20
2022-10-25T03:56:29.231Z,77.40
2022-10-25T03:58:57.454Z,77.40
2022-10-25T04:01:27.185Z,77.40
2022-10-25T04:03:55.471Z,77.60
2022-10-25T04:06:23.736Z,77.40
2022-10-25T04:08:51.966Z,77.40
2022-10-25T04:11:20.199Z,77.30
2022-10-25T04:13:48.413Z,77.40
2022-10-25T04:16:19.040Z,77.30
2022-10-25T04:18:48.878Z,77.30
2022-10-25T04:21:17.092Z,77.40
2022-10-25T04:23:45.301Z,77.30
2022-10-25T04:26:14.666Z,77.40
2022-10-25T04:28:42.973Z,77.50
2022-10-25T04:31:11.199Z,77.50
2022-10-25T04:33:39.462Z,77.50
2022-10-25T04:36:09.428Z,77.50
2022-10-25T04:38:37.979Z,77.60
2022-10-25T04:41:06.359Z,77.40
2022-10-25T04:43:34.626Z,77.40
2022-10-25T04:46:03.614Z,77.60
2022-10-25T04:48:31.845Z,77.80
2022-10-25T04:51:00.900Z,78.00
2022-10-25T04:53:30.671Z,78.20
2022-10-25T04:55:59.470Z,78.20
2022-10-25T04:58:31.225Z,78.10
2022-10-25T05:01:02.465Z,78.20
2022-10-25T05:03:31.281Z,78.50
2022-10-25T05:06:07.386Z,78.30
2022-10-25T05:08:37.594Z,78.70
2022-10-25T05:11:06.046Z,78.40
2022-10-25T05:13:35.271Z,78.40
2022-10-25T05:16:04.220Z,78.60
2022-10-25T05:18:33.491Z,78.90
2022-10-25T05:21:04.735Z,79.10
2022-10-25T05:23:34.474Z,79.00
2022-10-25T05:26:05.890Z,78.70
2022-10-25T05:28:35.271Z,78.90
2022-10-25T05:31:07.628Z,78.80
2022-10-25T05:33:36.521Z,78.90
2022-10-25T05:36:05.683Z,78.70
2022-10-25T05:38:37.716Z,79.00
2022-10-25T05:41:08.526Z,79.10
2022-10-25T05:43:36.880Z,79.50
2022-10-25T05:46:07.119Z,79.30
2022-10-25T05:48:36.880Z,79.40
2022-10-25T05:51:28.932Z,79.40
2022-10-25T05:54:02.976Z,79.90
2022-10-25T05:56:33.731Z,79.40
2022-10-25T05:59:04.016Z,79.60
2022-10-25T06:01:32.458Z,79.70
2022-10-25T06:04:00.742Z,79.80
2022-10-25T06:06:29.423Z,79.90
2022-10-25T06:08:58.631Z,80.00
2022-10-25T06:11:27.927Z,80.10
2022-10-25T06:13:57.669Z,80.10
2022-10-25T06:16:26.221Z,80.30
2022-10-25T06:18:55.041Z,80.30
2022-10-25T06:21:25.015Z,80.40
2022-10-25T06:23:53.972Z,80.50
2022-10-25T06:26:24.332Z,80.60
2022-10-25T06:28:54.804Z,80.60
2022-10-25T06:31:25.041Z,80.60
2022-10-25T06:33:53.458Z,80.70
2022-10-25T06:36:27.207Z,80.50
2022-10-25T06:38:55.689Z,80.80
2022-10-25T06:41:25.622Z,80.40
2022-10-25T06:43:53.896Z,80.50
2022-10-25T06:46:25.635Z,80.40
2022-10-25T06:48:55.537Z,81.20
2022-10-25T06:51:25.073Z,80.30
2022-10-25T06:53:56.033Z,80.20
2022-10-25T06:56:24.570Z,80.10
2022-10-25T06:58:53.088Z,79.90
2022-10-25T07:01:24.565Z,79.80
2022-10-25T07:03:53.981Z,79.90
2022-10-25T07:06:24.924Z,79.90
2022-10-25T07:08:56.013Z,80.00
2022-10-25T07:11:25.679Z,80.70
2022-10-25T07:13:53.986Z,79.60
2022-10-25T07:16:23.728Z,79.30
2022-10-25T07:18:52.207Z,79.30
2022-10-25T07:21:22.337Z,79.00
2022-10-25T07:23:51.947Z,79.20
2022-10-25T07:26:22.185Z,79.50
2022-10-25T07:28:51.830Z,80.00
2022-10-25T07:31:22.571Z,79.90
2022-10-25T07:33:53.803Z,79.10
2022-10-25T07:36:22.233Z,78.60
2022-10-25T07:38:50.688Z,78.30
2022-10-25T07:41:19.003Z,78.00
2022-10-25T07:43:47.293Z,78.00
2022-10-25T07:46:15.487Z,77.90
2022-10-25T07:48:43.734Z,77.70
2022-10-25T07:51:15.814Z,77.60
2022-10-25T07:53:44.335Z,77.90
2022-10-25T07:56:17.497Z,78.30
2022-10-25T07:58:49.194Z,77.90
2022-10-25T08:01:21.483Z,77.90
2022-10-25T08:03:49.766Z,77.30
2022-10-25T08:06:19.704Z,76.70
2022-10-25T08:08:48.150Z,75.60
2022-10-25T08:11:17.274Z,74.90
2022-10-25T08:13:45.631Z,74.50
2022-10-25T08:16:13.857Z,74.10
2022-10-25T08:18:44.161Z,73.90
2022-10-25T08:21:12.554Z,73.70
2022-10-25T08:23:42.262Z,73.90
2022-10-25T08:26:10.733Z,74.10
2022-10-25T08:28:39.003Z,74.40
2022-10-25T08:31:07.400Z,74.40
2022-10-25T08:33:35.803Z,74.40
2022-10-25T08:36:04.566Z,74.20
2022-10-25T08:38:32.790Z,73.50
2022-10-25T08:41:10.351Z,72.80
2022-10-25T08:46:32.180Z,70.90
2022-10-25T08:49:11.574Z,71.10
2022-10-25T08:51:44.809Z,71.00
2022-10-25T08:54:23.354Z,71.40
2022-10-25T08:57:14.272Z,71.20
2022-10-25T08:59:46.631Z,71.30
2022-10-25T09:02:20.567Z,71.30
2022-10-25T09:04:49.201Z,71.30
2022-10-25T09:07:40.580Z,71.60
2022-10-25T09:10:22.604Z,71.70
2022-10-25T09:12:57.986Z,72.10
2022-10-25T09:15:40.477Z,72.40
2022-10-25T09:18:16.763Z,71.60
2022-10-25T09:20:51.219Z,70.80
2022-10-25T09:23:29.033Z,70.10
2022-10-25T09:26:05.039Z,70.00
2022-10-25T09:28:51.293Z,69.70
2022-10-25T09:31:23.865Z,69.30
2022-10-25T09:34:00.050Z,69.00
2022-10-25T09:36:37.994Z,68.70
2022-10-25T09:39:15.884Z,68.30
2022-10-25T09:41:48.031Z,68.10
2022-10-25T09:44:27.044Z,68.10
2022-10-25T09:46:59.620Z,67.90
2022-10-25T09:49:33.372Z,67.80
2022-10-25T09:52:14.020Z,67.70
2022-10-25T09:54:49.114Z,67.50
2022-10-25T09:57:17.451Z,67.50
2022-10-25T09:59:50.694Z,68.00
2022-10-25T10:02:20.405Z,68.00
2022-10-25T10:04:48.890Z,68.70
2022-10-25T10:07:22.037Z,68.40
2022-10-25T10:09:51.501Z,68.30
2022-10-25T10:12:24.886Z,68.40
2022-10-25T10:14:59.517Z,68.60
2022-10-25T10:17:29.851Z,68.70
2022-10-25T10:20:15.958Z,69.10
2022-10-25T10:22:51.778Z,69.50
2022-10-25T10:25:23.717Z,69.80
2022-10-25T10:27:55.346Z,70.00
2022-10-25T10:30:28.861Z,70.30
2022-10-25T10:32:59.474Z,70.90
2022-10-25T10:35:30.799Z,71.00
2022-10-25T10:38:22.280Z,71.20
2022-10-25T10:40:51.827Z,71.70
2022-10-25T10:43:30.927Z,72.30
2022-10-25T10:46:05.789Z,72.10
2022-10-25T10:48:41.905Z,71.90
2022-10-25T10:51:25.258Z,71.60
2022-10-25T10:54:02.167Z,71.20
2022-10-25T10:56:30.746Z,71.20
2022-10-25T10:58:59.236Z,70.80
2022-10-25T11:01:34.764Z,70.30
2022-10-25T11:04:03.432Z,68.90
2022-10-25T11:06:33.849Z,68.10
2022-10-25T11:09:19.367Z,66.70
2022-10-25T11:12:06.709Z,64.50
2022-10-25T11:14:35.368Z,64.20
2022-10-25T11:17:13.104Z,64.60
2022-10-25T11:20:08.418Z,63.60
2022-10-25T11:23:02.680Z,63.20
2022-10-25T11:25:40.102Z,62.90
2022-10-25T11:28:30.267Z,62.40
2022-10-25T11:31:08.016Z,62.00
2022-10-25T11:33:48.123Z,62.20
2022-10-25T11:36:40.072Z,62.40
2022-10-25T11:39:19.040Z,62.10
2022-10-25T11:41:50.054Z,62.00
2022-10-25T11:44:36.102Z,62.10
2022-10-25T11:47:10.470Z,61.30
2022-10-25T11:49:54.719Z,61.60
2022-10-25T11:52:52.064Z,61.60
2022-10-25T11:55:33.191Z,61.60
2022-10-25T11:58:16.667Z,61.20
2022-10-25T12:00:54.426Z,60.80
2022-10-25T12:03:36.093Z,61.00
2022-10-25T12:06:16.627Z,60.80
2022-10-25T12:08:55.108Z,59.80
2022-10-25T12:11:28.186Z,59.70
2022-10-25T12:13:58.377Z,59.60
2022-10-25T12:16:27.878Z,61.90
2022-10-25T12:19:05.998Z,59.80
2022-10-25T12:21:43.623Z,59.10
2022-10-25T12:24:20.816Z,58.90
2022-10-25T12:26:52.330Z,58.20
2022-10-25T12:29:27.870Z,58.70
2022-10-25T12:31:59.838Z,58.50
2022-10-25T12:34:35.108Z,58.60
2022-10-25T12:37:09.673Z,58.70
2022-10-25T12:39:40.746Z,58.60
2022-10-25T12:42:16.009Z,58.60
2022-10-25T12:45:04.446Z,58.50
2022-10-25T12:47:54.371Z,58.30
2022-10-25T12:50:35.267Z,58.80
2022-10-25T12:53:42.817Z,58.40
2022-10-25T12:56:23.696Z,58.10
2022-10-25T12:59:07.634Z,57.90
2022-10-25T13:01:57.607Z,57.70
2022-10-25T13:04:44.120Z,56.80
2022-10-25T13:07:15.457Z,56.10
2022-10-25T13:09:45.312Z,55.70
2022-10-25T13:12:23.157Z,56.10
2022-10-25T13:14:54.200Z,55.70
2022-10-25T13:18:00.007Z,56.20
2022-10-25T13:20:51.293Z,55.90
2022-10-25T13:23:50.196Z,55.90
2022-10-25T13:26:21.060Z,55.80
2022-10-25T13:28:50.607Z,56.10
2022-10-25T13:31:49.051Z,57.60
2022-10-25T13:34:35.611Z,58.30
2022-10-25T13:37:06.703Z,58.40
2022-10-25T13:39:39.183Z,58.80
2022-10-25T13:42:24.486Z,59.30
2022-10-25T13:44:56.659Z,59.70
2022-10-25T13:47:47.241Z,60.00
2022-10-25T13:50:20.860Z,60.20
2022-10-25T13:53:02.581Z,60.00
2022-10-25T13:55:35.899Z,60.20
2022-10-25T13:58:49.308Z,59.60
2022-10-25T14:01:55.950Z,60.30
2022-10-25T14:04:35.804Z,60.70
2022-10-25T14:07:41.785Z,60.70
2022-10-25T14:12:56.377Z,60.50
2022-10-25T14:15:36.601Z,60.50
2022-10-25T14:18:13.276Z,60.40
2022-10-25T14:20:41.548Z,60.30
2022-10-25T14:23:16.619Z,60.20
2022-10-25T14:25:52.133Z,59.80
2022-10-25T14:28:24.326Z,60.00
2022-10-25T14:30:57.108Z,60.40
2022-10-25T14:33:30.883Z,61.10
2022-10-25T14:36:08.778Z,61.60
2022-10-25T14:38:51.310Z,61.60
2022-10-25T14:41:23.364Z,61.20
2022-10-25T14:43:52.311Z,60.80
2022-10-25T14:46:23.218Z,61.00
2022-10-25T14:48:55.187Z,60.20
2022-10-25T14:51:26.887Z,59.50
2022-10-25T14:53:57.926Z,59.20
2022-10-25T14:56:30.341Z,59.00
2022-10-25T14:58:59.534Z,59.10
2022-10-25T15:01:29.761Z,59.30
2022-10-25T15:04:00.967Z,59.20
2022-10-25T15:06:32.218Z,59.20
2022-10-25T15:09:36.915Z,58.90
2022-10-25T15:12:07.574Z,58.60
2022-10-25T15:14:36.622Z,58.20
2022-10-25T15:17:16.000Z,58.30
2022-10-25T15:20:27.647Z,58.30
2022-10-25T15:23:03.695Z,58.60
2022-10-25T15:25:34.467Z,58.80
2022-10-25T15:28:11.747Z,59.00
2022-10-25T15:30:42.690Z,59.20
2022-10-25T15:33:15.031Z,59.50
2022-10-25T15:35:48.515Z,59.70
2022-10-25T15:38:17.598Z,59.90
2022-10-25T15:40:46.102Z,60.20
2022-10-25T15:43:14.630Z,60.50
2022-10-25T15:45:44.146Z,60.90
2022-10-25T15:48:18.037Z,61.20
2022-10-25T15:50:52.176Z,61.70
2022-10-25T15:53:20.945Z,61.90
2022-10-25T15:55:50.104Z,62.20
2022-10-25T15:58:18.842Z,62.50
2022-10-25T16:00:48.079Z,62.80
2022-10-25T16:03:21.739Z,63.00
2022-10-25T16:05:51.215Z,63.50
2022-10-25T16:08:19.667Z,63.50
2022-10-25T16:10:48.068Z,63.80
2022-10-25T16:13:26.509Z,64.00
2022-10-25T16:15:55.475Z,64.20
2022-10-25T16:20:57.851Z,64.50
2022-10-25T16:23:26.370Z,64.50
2022-10-25T16:25:55.920Z,64.70
2022-10-25T16:30:52.382Z,65.10
2022-10-25T16:33:23.545Z,65.30
2022-10-25T16:35:53.190Z,65.60
2022-10-25T16:38:21.442Z,65.90
2022-10-25T16:40:49.726Z,66.60
2022-10-25T16:43:17.987Z,66.00
2022-10-25T16:45:46.263Z,66.20
2022-10-25T16:48:14.564Z,66.30
2022-10-25T16:50:42.824Z,66.50
2022-10-25T16:53:14.943Z,66.60
2022-10-25T16:55:43.271Z,67.00
2022-10-25T16:58:11.998Z,66.80
2022-10-25T17:00:40.291Z,67.00
2022-10-25T17:03:08.539Z,67.10
2022-10-25T17:05:39.008Z,67.40
2022-10-25T17:08:07.656Z,67.50
2022-10-25T17:10:42.483Z,67.70
2022-10-25T17:13:16.013Z,67.90
2022-10-25T17:15:44.439Z,67.80
2022-10-25T17:18:15.925Z,68.50
2022-10-25T17:20:44.378Z,67.90
2022-10-25T17:23:20.101Z,68.00
2022-10-25T17:25:58.203Z,68.20
2022-10-25T17:28:26.795Z,68.80
2022-10-25T17:30:55.070Z,68.50
2022-10-25T17:33:23.414Z,68.50
2022-10-25T17:35:51.641Z,68.70
2022-10-25T17:38:20.156Z,68.80
2022-10-25T17:40:49.745Z,68.90
2022-10-25T17:43:18.398Z,69.10
2022-10-25T17:45:46.659Z,69.20
2022-10-25T17:48:14.940Z,69.30
2022-10-25T17:50:43.986Z,69.50
2022-10-25T17:53:13.210Z,69.70
2022-10-25T17:55:41.543Z,69.90
2022-10-25T17:58:11.185Z,70.00
2022-10-25T18:00:39.448Z,70.10
2022-10-25T18:03:07.675Z,70.20
2022-10-25T18:05:36.025Z,70.30
2022-10-25T18:08:04.276Z,70.40
2022-10-25T18:10:34.406Z,70.40
2022-10-25T18:13:03.083Z,70.80
2022-10-25T18:15:33.411Z,70.70
2022-10-25T18:18:01.941Z,70.80
2022-10-25T18:20:30.259Z,70.80
2022-10-25T18:22:58.487Z,70.80
2022-10-25T18:25:26.767Z,71.10
2022-10-25T18:27:54.951Z,71.20
2022-10-25T18:30:23.310Z,71.20
2022-10-25T18:32:53.503Z,71.30
2022-10-25T18:35:22.520Z,71.50
2022-10-25T18:37:51.093Z,71.40
2022-10-25T18:40:19.507Z,71.40
2022-10-25T18:42:47.738Z,71.50
2022-10-25T18:45:16.077Z,71.60
2022-10-25T18:47:44.946Z,71.60
2022-10-25T18:50:14.863Z,71.80
2022-10-25T18:52:43.099Z,72.00
2022-10-25T18:55:11.581Z,71.90
2022-10-25T18:57:40.767Z,72.10
2022-10-25T19:00:10.167Z,72.30
2022-10-25T19:02:38.918Z,72.30
2022-10-25T19:07:37.123Z,72.40
2022-10-25T19:10:06.163Z,72.60
2022-10-25T19:12:34.507Z,72.60
2022-10-25T19:15:02.812Z,72.70
2022-10-25T19:17:31.055Z,72.60
2022-10-25T19:19:59.394Z,72.40
2022-10-25T19:22:27.770Z,72.30
2022-10-25T19:27:25.797Z,72.30
2022-10-25T19:29:54.050Z,72.20
2022-10-25T19:32:22.387Z,72.30
2022-10-25T19:37:23.777Z,72.00
2022-10-25T19:39:56.851Z,72.20
2022-10-25T19:42:28.707Z,71.80
2022-10-25T19:44:57.128Z,72.50
2022-10-25T19:47:25.459Z,72.70
2022-10-25T19:49:53.809Z,73.00
2022-10-25T19:52:22.040Z,73.30
2022-10-25T19:54:50.570Z,73.60
2022-10-25T19:57:18.826Z,74.00
2022-10-25T19:59:49.119Z,74.20
2022-10-25T20:02:17.613Z,74.80
2022-10-25T20:04:48.480Z,74.80
2022-10-25T20:07:16.818Z,75.30
2022-10-25T20:09:46.715Z,75.00
2022-10-25T20:12:14.955Z,75.10
2022-10-25T20:14:43.519Z,74.60
2022-10-25T20:17:14.113Z,74.00
2022-10-25T20:19:43.758Z,73.60
2022-10-25T20:22:11.959Z,73.40
2022-10-25T20:24:40.496Z,73.50
2022-10-25T20:27:08.675Z,73.70
2022-10-25T20:29:36.909Z,73.90
2022-10-25T20:32:05.254Z,74.30
2022-10-25T20:34:37.456Z,75.10
2022-10-25T20:37:06.155Z,74.20
2022-10-25T20:39:34.383Z,74.20
2022-10-25T20:42:02.601Z,74.50
2022-10-25T20:44:30.843Z,74.70
2022-10-25T20:46:59.067Z,74.60
2022-10-25T20:49:27.354Z,74.90
2022-10-25T20:51:56.974Z,75.20
2022-10-25T20:54:25.199Z,75.20
2022-10-25T20:56:53.394Z,75.40
2022-10-25T20:59:21.667Z,75.80
2022-10-25T21:01:50.100Z,76.10
2022-10-25T21:04:26.146Z,76.20
2022-10-25T21:07:05.704Z,76.20
2022-10-25T21:09:33.935Z,75.90
2022-10-25T21:12:02.137Z,75.40
2022-10-25T21:14:30.382Z,75.00
2022-10-25T21:16:58.608Z,74.70
2022-10-25T21:19:26.813Z,74.70
2022-10-25T21:21:55.003Z,74.90
2022-10-25T21:24:24.710Z,75.00
2022-10-25T21:26:54.213Z,75.00
2022-10-25T21:29:22.426Z,75.00
2022-10-25T21:31:50.719Z,75.30
2022-10-25T21:34:18.914Z,75.40
2022-10-25T21:36:47.130Z,75.70
2022-10-25T21:39:15.573Z,75.90
2022-10-25T21:41:45.164Z,76.00
2022-10-25T21:44:13.399Z,76.10
2022-10-25T21:46:41.583Z,75.80
2022-10-25T21:49:09.814Z,75.50
2022-10-25T21:51:38.139Z,75.70
2022-10-25T21:54:06.882Z,76.00
2022-10-25T21:56:35.061Z,76.00
2022-10-25T21:59:04.675Z,76.10
2022-10-25T22:01:33.208Z,76.60
2022-10-25T22:04:01.502Z,76.80
2022-10-25T22:06:30.429Z,77.00
2022-10-25T22:08:58.871Z,77.10
2022-10-25T22:11:29.396Z,77.30
2022-10-25T22:13:58.998Z,77.50
2022-10-25T22:16:29.714Z,77.70
2022-10-25T22:18:59.902Z,77.90
2022-10-25T22:21:29.660Z,77.90
2022-10-25T22:23:57.931Z,77.90
2022-10-25T22:26:26.420Z,77.90
2022-10-25T22:28:56.467Z,78.00
2022-10-25T22:31:25.702Z,78.20
2022-10-25T22:33:56.295Z,78.30
2022-10-25T22:36:26.208Z,78.60
2022-10-25T22:38:54.835Z,78.70
2022-10-25T22:41:25.085Z,78.70
2022-10-25T22:43:53.823Z,78.60
2022-10-25T22:46:25.276Z,78.40
2022-10-25T22:48:57.027Z,77.90
2022-10-25T22:51:27.117Z,77.30
2022-10-25T22:53:55.536Z,76.80
2022-10-25T22:56:25.346Z,76.60
2022-10-25T22:58:55.499Z,76.70
2022-10-25T23:01:25.252Z,76.80
2022-10-25T23:03:56.710Z,76.80
2022-10-25T23:06:26.868Z,77.00
2022-10-25T23:08:55.975Z,77.00
2022-10-25T23:11:25.903Z,76.90
2022-10-25T23:13:54.244Z,77.00
2022-10-25T23:16:22.441Z,77.00
2022-10-25T23:18:51.108Z,76.60
2022-10-25T23:21:23.366Z,76.20
2022-10-25T23:23:52.577Z,76.30
2022-10-25T23:26:22.416Z,76.20
2022-10-25T23:28:50.857Z,76.00
2022-10-25T23:31:19.486Z,75.90
2022-10-25T23:33:52.323Z,76.10
2022-10-25T23:36:24.161Z,76.70
2022-10-25T23:38:53.935Z,76.90
2022-10-25T23:41:23.046Z,77.10
2022-10-25T23:43:51.304Z,77.30
2022-10-25T23:46:19.583Z,77.50
2022-10-25T23:48:48.061Z,77.60
2022-10-25T23:51:18.599Z,77.60
2022-10-25T23:53:48.810Z,77.60
2022-10-25T23:56:17.106Z,77.70
2022-10-25T23:58:45.339Z,77.70
